Terminal Aerodrome Forecast
Issued by NWS Charleston, WV

Current Version | Previous Version | Graphics & Text | Print | Product List | Glossary On
Versions: 1 2 3 4 5 6 7 8 9 10 11 12 13 14 15 16 17 18 19 20 21 22 23 24 25
000
FTUS41 KRLX 150618 AAA
TAFEKN
TAF AMD
KEKN 150618Z 1506/1606 22010G17KT 6SM -RA OVC015
      TEMPO 1506/1510 4SM -DZ BR OVC008
     FM151000 26010G17KT P6SM OVC008
     FM151300 25010G17KT P6SM OVC004
     FM151500 25011G21KT P6SM OVC006
     FM151700 25010G17KT P6SM OVC006
     FM152000 25009KT P6SM RA OVC008
     FM152100 24009KT 6SM RA OVC008
     FM160000 24012G23KT 4SM +RA OVC010=

USA.gov is the U.S. government's official web portal to all federal, state and local government web resources and services.